createdAt,value
2018-07-05T00:00:09.319Z,19.78
2018-07-05T00:01:23.043Z,19.94
2018-07-05T00:02:37.284Z,19.82
2018-07-05T00:03:51.710Z,19.92
2018-07-05T00:05:06.531Z,19.93
2018-07-05T00:06:21.031Z,19.85
2018-07-05T00:07:35.494Z,19.78
2018-07-05T00:08:49.744Z,19.85
2018-07-05T00:10:04.000Z,19.87
2018-07-05T00:11:18.233Z,19.85
2018-07-05T00:12:33.040Z,19.79
2018-07-05T00:13:47.738Z,19.71
2018-07-05T00:15:01.710Z,19.85
2018-07-05T00:16:16.477Z,19.74
2018-07-05T00:17:30.734Z,19.72
2018-07-05T00:18:44.228Z,19.67
2018-07-05T00:19:58.665Z,19.71
2018-07-05T00:21:13.686Z,19.75
2018-07-05T00:22:28.135Z,19.64
2018-07-05T00:23:42.651Z,19.66
2018-07-05T00:24:57.633Z,19.74
2018-07-05T00:26:12.210Z,19.67
2018-07-05T00:27:27.181Z,19.67
2018-07-05T00:28:41.646Z,19.67
2018-07-05T00:29:56.937Z,19.71
2018-07-05T00:31:11.203Z,19.74
2018-07-05T00:32:25.396Z,19.67
2018-07-05T00:33:39.644Z,19.74
2018-07-05T00:34:54.331Z,19.74
2018-07-05T00:36:08.810Z,19.64
2018-07-05T00:37:22.452Z,19.63
2018-07-05T00:38:37.455Z,19.64
2018-07-05T00:39:52.192Z,19.63
2018-07-05T00:41:06.641Z,19.66
2018-07-05T00:42:21.896Z,19.7
2018-07-05T00:43:36.084Z,19.63
2018-07-05T00:44:50.850Z,19.62
2018-07-05T00:46:05.551Z,19.63
2018-07-05T00:47:19.896Z,19.6
2018-07-05T00:48:34.857Z,19.62
2018-07-05T00:49:49.306Z,19.64
2018-07-05T00:51:03.269Z,19.62
2018-07-05T00:52:17.500Z,19.66
2018-07-05T00:53:31.441Z,19.59
2018-07-05T00:54:46.165Z,19.49
2018-07-05T00:56:00.877Z,19.52
2018-07-05T00:57:15.417Z,19.49
2018-07-05T00:58:30.121Z,19.47
2018-07-05T00:59:44.340Z,19.49
2018-07-05T01:00:59.099Z,19.42
2018-07-05T01:02:13.304Z,19.49
2018-07-05T01:03:27.504Z,19.47
2018-07-05T01:04:42.024Z,19.39
2018-07-05T01:05:56.915Z,19.45
2018-07-05T01:07:11.723Z,19.49
2018-07-05T01:08:25.964Z,19.47
2018-07-05T01:09:39.905Z,19.47
2018-07-05T01:10:54.373Z,19.53
2018-07-05T01:12:08.829Z,19.42
2018-07-05T01:13:23.577Z,19.47
2018-07-05T01:14:38.020Z,19.48
2018-07-05T01:15:53.164Z,19.42
2018-07-05T01:17:07.723Z,19.39
2018-07-05T01:18:22.681Z,19.35
2018-07-05T01:19:37.939Z,19.29
2018-07-05T01:20:52.645Z,19.3
2018-07-05T01:22:06.624Z,19.34
2018-07-05T01:23:20.952Z,19.35
2018-07-05T01:24:35.600Z,19.24
2018-07-05T01:25:50.355Z,19.09
2018-07-05T01:27:04.803Z,19.15
2018-07-05T01:28:19.346Z,18.97
2018-07-05T01:29:33.549Z,18.94
2018-07-05T01:30:48.359Z,18.96
2018-07-05T01:32:02.906Z,18.86
2018-07-05T01:33:17.350Z,18.88
2018-07-05T01:34:32.086Z,18.98
2018-07-05T01:35:46.836Z,18.96
2018-07-05T01:37:01.569Z,18.88
2018-07-05T01:38:16.244Z,18.88
2018-07-05T01:39:30.476Z,18.85
2018-07-05T01:40:44.417Z,18.81
2018-07-05T01:41:58.594Z,18.85
2018-07-05T01:43:12.586Z,18.88
2018-07-05T01:44:27.778Z,18.73
2018-07-05T01:45:42.225Z,18.73
2018-07-05T01:46:56.414Z,18.71
2018-07-05T01:48:10.871Z,18.88
2018-07-05T01:49:25.898Z,18.85
2018-07-05T01:50:40.653Z,18.85
2018-07-05T01:51:55.281Z,18.85
2018-07-05T01:53:09.687Z,18.83
2018-07-05T01:54:23.904Z,18.96
2018-07-05T01:55:38.503Z,18.94
2018-07-05T01:56:53.480Z,18.98
2018-07-05T01:58:07.673Z,19.01
2018-07-05T01:59:22.295Z,18.97
2018-07-05T02:00:36.528Z,19
2018-07-05T02:01:51.371Z,18.91
2018-07-05T02:03:06.405Z,18.96
2018-07-05T02:04:21.559Z,18.86
2018-07-05T02:05:35.752Z,18.83
2018-07-05T02:06:50.485Z,18.76
2018-07-05T02:08:05.368Z,18.78
2018-07-05T02:09:20.278Z,18.73
2018-07-05T02:10:34.274Z,18.79
2018-07-05T02:11:48.469Z,18.76
2018-07-05T02:13:02.918Z,18.78
2018-07-05T02:14:17.663Z,18.66
2018-07-05T02:15:32.832Z,18.6
2018-07-05T02:16:47.074Z,18.67
2018-07-05T02:18:01.212Z,18.57
2018-07-05T02:19:15.146Z,18.71
2018-07-05T02:20:29.967Z,18.7
2018-07-05T02:21:44.959Z,18.64
2018-07-05T02:22:59.625Z,18.67
2018-07-05T02:24:14.360Z,18.7
2018-07-05T02:25:28.718Z,18.6
2018-07-05T02:26:43.441Z,18.53
2018-07-05T02:27:58.152Z,18.55
2018-07-05T02:29:13.013Z,18.51
2018-07-05T02:30:27.951Z,18.41
2018-07-05T02:31:41.915Z,18.48
2018-07-05T02:32:56.387Z,18.45
2018-07-05T02:34:10.944Z,18.49
2018-07-05T02:35:26.130Z,18.43
2018-07-05T02:36:39.590Z,18.48
2018-07-05T02:37:53.805Z,18.53
2018-07-05T02:39:08.534Z,18.55
2018-07-05T02:40:22.601Z,18.53
2018-07-05T02:41:37.596Z,18.55
2018-07-05T02:42:52.322Z,18.58
2018-07-05T02:44:06.644Z,18.55
2018-07-05T02:45:20.871Z,18.48
2018-07-05T02:46:35.497Z,18.57
2018-07-05T02:47:49.482Z,18.52
2018-07-05T02:49:04.216Z,18.45
2018-07-05T02:50:18.855Z,18.53
2018-07-05T02:51:33.128Z,18.49
2018-07-05T02:52:48.585Z,18.39
2018-07-05T02:54:02.802Z,18.42
2018-07-05T02:55:16.801Z,18.46
2018-07-05T02:56:31.948Z,18.33
2018-07-05T02:57:46.650Z,18.28
2018-07-05T02:59:01.659Z,18.31
2018-07-05T03:00:15.888Z,18.41
2018-07-05T03:01:30.697Z,18.41
2018-07-05T03:02:45.436Z,18.46
2018-07-05T03:03:59.636Z,18.42
2018-07-05T03:05:13.979Z,18.45
2018-07-05T03:06:27.972Z,18.52
2018-07-05T03:07:42.449Z,18.52
2018-07-05T03:08:57.037Z,18.53
2018-07-05T03:10:11.768Z,18.66
2018-07-05T03:11:26.012Z,18.48
2018-07-05T03:12:40.557Z,18.39
2018-07-05T03:13:55.509Z,18.42
2018-07-05T03:15:09.990Z,18.43
2018-07-05T03:16:25.314Z,18.6
2018-07-05T03:17:40.112Z,18.63
2018-07-05T03:18:55.098Z,18.67
2018-07-05T03:20:09.812Z,18.61
2018-07-05T03:21:24.223Z,18.55
2018-07-05T03:22:39.198Z,18.63
2018-07-05T03:23:53.247Z,18.71
2018-07-05T03:25:07.911Z,18.73
2018-07-05T03:26:22.103Z,18.78
2018-07-05T03:27:36.829Z,18.74
2018-07-05T03:28:50.988Z,18.79
2018-07-05T03:30:05.790Z,18.81
2018-07-05T03:31:20.084Z,18.82
2018-07-05T03:32:34.327Z,18.85
2018-07-05T03:33:49.092Z,18.88
2018-07-05T03:35:04.055Z,19.04
2018-07-05T03:36:25.365Z,19.09
2018-07-05T03:37:39.684Z,19.08
2018-07-05T03:38:54.148Z,19.22
2018-07-05T03:40:08.855Z,19.24
2018-07-05T03:41:22.815Z,19.22
2018-07-05T03:42:37.582Z,19.07
2018-07-05T03:43:52.032Z,19.2
2018-07-05T03:45:06.528Z,19.16
2018-07-05T03:46:21.264Z,19.22
2018-07-05T03:47:36.354Z,19.2
2018-07-05T03:48:50.772Z,19.29
2018-07-05T03:50:05.486Z,19.41
2018-07-05T03:51:19.674Z,19.55
2018-07-05T03:52:34.010Z,19.62
2018-07-05T03:53:48.691Z,19.57
2018-07-05T03:55:02.970Z,19.7
2018-07-05T03:56:17.721Z,19.72
2018-07-05T03:57:32.099Z,19.64
2018-07-05T03:58:46.818Z,19.74
2018-07-05T04:00:01.679Z,20.04
2018-07-05T04:01:16.699Z,20.59
2018-07-05T04:02:31.394Z,20.83
2018-07-05T04:03:46.386Z,20.95
2018-07-05T04:05:00.595Z,21.25
2018-07-05T04:06:15.303Z,21.58
2018-07-05T04:07:30.052Z,21.83
2018-07-05T04:08:44.934Z,22.22
2018-07-05T04:09:59.660Z,22.58
2018-07-05T04:11:13.874Z,23.08
2018-07-05T04:12:28.368Z,23.64
2018-07-05T04:13:43.762Z,23.94
2018-07-05T04:14:58.919Z,24.44
2018-07-05T04:16:13.401Z,24.92
2018-07-05T04:17:28.328Z,25.29
2018-07-05T04:18:43.102Z,25.74
2018-07-05T04:19:57.327Z,25.99
2018-07-05T04:21:11.847Z,26.37
2018-07-05T04:22:26.333Z,26.79
2018-07-05T04:23:41.508Z,26.96
2018-07-05T04:24:55.751Z,27.33
2018-07-05T04:26:10.615Z,27.64
2018-07-05T04:27:24.611Z,27.9
2018-07-05T04:28:39.330Z,28.16
2018-07-05T04:29:54.169Z,28.68
2018-07-05T04:31:08.664Z,29.02
2018-07-05T04:32:23.411Z,29.31
2018-07-05T04:33:38.118Z,29.68
2018-07-05T04:34:52.106Z,29.98
2018-07-05T04:36:06.353Z,30.23
2018-07-05T04:37:21.264Z,29.84
2018-07-05T04:38:36.354Z,30.02
2018-07-05T04:39:50.607Z,30.26
2018-07-05T04:41:04.560Z,30.05
2018-07-05T04:42:19.567Z,29.9
2018-07-05T04:43:34.743Z,30.17
2018-07-05T04:44:49.974Z,30.27
2018-07-05T04:46:04.708Z,29.87
2018-07-05T04:47:19.471Z,29.98
2018-07-05T04:48:33.421Z,30.05
2018-07-05T04:49:48.227Z,30.33
2018-07-05T04:51:02.980Z,30.49
2018-07-05T04:52:18.600Z,30.71
2018-07-05T04:53:32.781Z,30.96
2018-07-05T04:54:47.296Z,31.07
2018-07-05T04:56:02.305Z,31.28
2018-07-05T04:57:16.649Z,31.3
2018-07-05T04:58:31.723Z,31.1
2018-07-05T04:59:46.670Z,31.41
2018-07-05T05:01:02.046Z,31.32
2018-07-05T05:02:16.823Z,31.57
2018-07-05T05:03:31.693Z,31.79
2018-07-05T05:04:46.022Z,32.11
2018-07-05T05:06:00.549Z,32.09
2018-07-05T05:07:15.141Z,32.01
2018-07-05T05:08:29.698Z,32.09
2018-07-05T05:09:44.825Z,31.67
2018-07-05T05:10:59.571Z,31.69
2018-07-05T05:12:14.338Z,31.32
2018-07-05T05:13:28.840Z,31.37
2018-07-05T05:14:43.495Z,31.47
2018-07-05T05:15:57.714Z,31.48
2018-07-05T05:17:12.656Z,31.57
2018-07-05T05:18:27.148Z,31.72
2018-07-05T05:19:41.132Z,31.77
2018-07-05T05:20:55.472Z,31.73
2018-07-05T05:22:10.498Z,31.82
2018-07-05T05:23:24.506Z,31.81
2018-07-05T05:24:39.213Z,32.01
2018-07-05T05:25:53.750Z,31.78
2018-07-05T05:27:08.251Z,31.85
2018-07-05T05:28:23.074Z,31.57
2018-07-05T05:29:37.049Z,31.85
2018-07-05T05:30:51.815Z,31.6
2018-07-05T05:32:06.028Z,31.47
2018-07-05T05:33:20.268Z,31.82
2018-07-05T05:34:35.566Z,31.54
2018-07-05T05:35:50.644Z,31.77
2018-07-05T05:37:04.644Z,31.79
2018-07-05T05:38:19.137Z,31.74
2018-07-05T05:39:34.065Z,31.69
2018-07-05T05:40:49.035Z,31.33
2018-07-05T05:42:04.237Z,31.29
2018-07-05T05:43:18.505Z,30.99
2018-07-05T05:44:33.243Z,30.32
2018-07-05T05:45:47.695Z,29.58
2018-07-05T05:47:02.530Z,29.25
2018-07-05T05:48:17.460Z,28.92
2018-07-05T05:49:32.229Z,28.96
2018-07-05T05:50:47.381Z,28.67
2018-07-05T05:52:02.121Z,28.55
2018-07-05T05:53:17.445Z,28.41
2018-07-05T05:54:32.232Z,28.16
2018-07-05T05:55:46.803Z,28.09
2018-07-05T05:57:01.373Z,27.88
2018-07-05T05:58:15.642Z,27.48
2018-07-05T05:59:30.154Z,27.34
2018-07-05T06:00:44.603Z,27.23
2018-07-05T06:01:59.690Z,27.26
2018-07-05T06:03:14.653Z,27.22
2018-07-05T06:04:29.150Z,27.07
2018-07-05T06:05:43.413Z,27.1
2018-07-05T06:06:57.999Z,27.25
2018-07-05T06:08:13.239Z,27.26
2018-07-05T06:09:27.661Z,27.25
2018-07-05T06:10:42.153Z,26.92
2018-07-05T06:11:57.004Z,26.76
2018-07-05T06:13:11.988Z,26.22
2018-07-05T06:14:26.745Z,26.22
2018-07-05T06:15:41.495Z,26.07
2018-07-05T06:16:56.209Z,26.08
2018-07-05T06:18:10.243Z,26.15
2018-07-05T06:19:24.987Z,26.22
2018-07-05T06:20:39.492Z,25.83
2018-07-05T06:21:54.245Z,25.88
2018-07-05T06:23:09.341Z,25.93
2018-07-05T06:24:23.871Z,25.91
2018-07-05T06:25:39.009Z,26.03
2018-07-05T06:26:53.841Z,25.86
2018-07-05T06:28:08.342Z,25.89
2018-07-05T06:29:22.821Z,25.81
2018-07-05T06:30:37.367Z,25.76
2018-07-05T06:31:51.893Z,25.74
2018-07-05T06:33:06.906Z,25.98
2018-07-05T06:34:22.441Z,25.96
2018-07-05T06:35:42.723Z,25.86
2018-07-05T06:36:57.651Z,25.99
2018-07-05T06:38:12.185Z,26.06
2018-07-05T06:39:26.445Z,25.96
2018-07-05T06:40:41.663Z,25.83
2018-07-05T06:41:56.464Z,25.76
2018-07-05T06:43:11.105Z,25.78
2018-07-05T06:44:25.597Z,25.99
2018-07-05T06:45:40.360Z,25.7
2018-07-05T06:46:55.626Z,25.67
2018-07-05T06:48:10.130Z,25.73
2018-07-05T06:49:24.979Z,25.86
2018-07-05T06:50:40.118Z,26.04
2018-07-05T06:51:54.635Z,26.08
2018-07-05T06:53:10.066Z,26.18
2018-07-05T06:54:25.088Z,26.23
2018-07-05T06:55:39.864Z,26.23
2018-07-05T06:56:53.843Z,26.22
2018-07-05T06:58:08.619Z,26.22
2018-07-05T06:59:23.720Z,26.04
2018-07-05T07:00:38.166Z,25.83
2018-07-05T07:01:52.669Z,25.8
2018-07-05T07:03:07.654Z,25.92
2018-07-05T07:04:22.423Z,25.73
2018-07-05T07:05:37.677Z,25.61
2018-07-05T07:06:52.200Z,25.62
2018-07-05T07:08:06.796Z,25.62
2018-07-05T07:09:21.467Z,25.62
